Time;durP1;ratioP1;P1;durP2;ratioP2;P2;SDS_P1;SDS_P2;PMS_P1;PMS_P2;Temp;Humidity;BMP_temperature;BMP_pressure;BME280_temperature;BME280_humidity;BME280_pressure;Samples;Min_cycle;Max_cycle;Signal;HPM_P1;HPM_P2
2020/12/26 00:02:18;;;;;;;;;;;;;;;22.44;27.43;97339.19;5100199;28;706;-75
2020/12/26 00:04:44;;;;;;;;;;;;;;;22.31;27.63;97340.06;5099810;28;678;-75
2020/12/26 00:07:09;;;;;;;;;;;;;;;21.81;27.94;97339.16;5100266;28;802;-74
2020/12/26 00:09:35;;;;;;;;;;;;;;;21.75;28.06;97346.66;5099691;28;1035;-75
2020/12/26 00:12:00;;;;;;;;;;;;;;;21.61;28.27;97335.09;5099539;28;930;-74
2020/12/26 00:14:28;;;;;;;;;;;;;;;21.22;28.99;97343.72;5099761;28;1031;-75
2020/12/26 00:16:54;;;;;;;;;;;;;;;21.76;28.74;97336.94;5099799;28;590;-74
2020/12/26 00:19:20;;;;;;;;;;;;;;;22.24;28.04;97354.53;5099614;28;1910;-74
2020/12/26 00:21:45;;;;;;;;;;;;;;;22.54;27.42;97366.31;5100419;28;690;-73
2020/12/26 00:24:11;;;;;;;;;;;;;;;22.32;27.47;97355.81;5099887;28;824;-74
2020/12/26 00:26:36;;;;;;;;;;;;;;;21.70;28.53;97350.06;5099513;28;796;-74
2020/12/26 00:29:02;;;;;;;;;;;;;;;21.46;28.83;97346.13;5099656;28;1111;-75
2020/12/26 00:31:27;;;;;;;;;;;;;;;21.59;28.41;97344.03;5099755;28;647;-74
2020/12/26 00:33:53;;;;;;;;;;;;;;;21.89;28.67;97350.22;5099886;28;634;-74
2020/12/26 00:36:18;;;;;;;;;;;;;;;22.39;27.31;97351.13;5099756;28;603;-74
2020/12/26 00:38:44;;;;;;;;;;;;;;;22.62;27.17;97339.22;5099498;28;1957;-74
2020/12/26 00:41:12;;;;;;;;;;;;;;;22.84;26.72;97339.91;5099365;28;878;-75
2020/12/26 00:43:38;;;;;;;;;;;;;;;21.77;28.16;97332.03;5099125;28;1127;-75
2020/12/26 00:46:03;;;;;;;;;;;;;;;21.53;28.20;97334.56;5099707;28;653;-74
2020/12/26 00:48:29;;;;;;;;;;;;;;;21.49;28.38;97348.81;5099396;28;657;-74
2020/12/26 00:50:54;;;;;;;;;;;;;;;21.60;28.79;97356.91;5099822;28;659;-75
2020/12/26 00:53:19;;;;;;;;;;;;;;;22.25;28.01;97346.81;5099212;28;1098;-74
2020/12/26 00:55:45;;;;;;;;;;;;;;;22.68;26.98;97348.69;5083990;28;1133;-74
2020/12/26 00:58:11;;;;;;;;;;;;;;;22.71;27.06;97353.44;5085566;28;1146;-75
2020/12/26 01:00:36;;;;;;;;;;;;;;;22.19;27.52;97357.19;5103155;28;1980;-74
2020/12/26 01:03:22;;;;;;;;;;;;;;;21.51;28.41;97360.50;5102751;28;1370;-74
2020/12/26 01:05:47;;;;;;;;;;;;;;;21.40;28.62;97364.94;5085673;28;1170;-74
2020/12/26 01:08:13;;;;;;;;;;;;;;;21.85;28.69;97359.63;5102501;28;932;-74
2020/12/26 01:10:38;;;;;;;;;;;;;;;22.32;27.83;97360.69;5102580;28;867;-73
2020/12/26 01:13:04;;;;;;;;;;;;;;;22.75;26.98;97351.25;5103434;28;998;-75
2020/12/26 01:15:29;;;;;;;;;;;;;;;22.71;27.00;97347.78;5102712;28;726;-74
2020/12/26 01:17:54;;;;;;;;;;;;;;;22.05;27.64;97341.47;5102708;28;698;-74
2020/12/26 01:20:20;;;;;;;;;;;;;;;21.62;28.39;97348.78;5085069;28;1971;-74
2020/12/26 01:22:45;;;;;;;;;;;;;;;21.15;28.63;97349.63;5102261;28;950;-74
2020/12/26 01:25:11;;;;;;;;;;;;;;;21.55;28.58;97351.84;5102216;28;880;-74
2020/12/26 01:27:37;;;;;;;;;;;;;;;21.32;29.46;97358.75;5102456;28;1022;-74
2020/12/26 01:30:03;;;;;;;;;;;;;;;22.08;28.45;97354.72;5102373;28;606;-74
2020/12/26 01:32:28;;;;;;;;;;;;;;;22.46;27.88;97365.78;5102445;28;694;-74
2020/12/26 01:34:55;;;;;;;;;;;;;;;22.56;27.29;97363.78;5102448;28;630;-74
2020/12/26 01:37:20;;;;;;;;;;;;;;;22.78;27.05;97363.69;5101989;28;1010;-74
2020/12/26 01:39:48;;;;;;;;;;;;;;;21.68;28.71;97375.25;5101826;28;1961;-74
2020/12/26 01:42:14;;;;;;;;;;;;;;;21.40;28.98;97370.59;5102178;28;1058;-74
2020/12/26 01:44:39;;;;;;;;;;;;;;;21.65;28.62;97372.53;5102574;28;553;-74
2020/12/26 01:47:05;;;;;;;;;;;;;;;21.37;29.76;97377.19;5102406;28;647;-74
2020/12/26 01:49:30;;;;;;;;;;;;;;;22.30;27.99;97375.34;5102258;28;714;-74
2020/12/26 01:51:56;;;;;;;;;;;;;;;22.54;27.32;97371.97;5084187;28;887;-74
2020/12/26 01:54:21;;;;;;;;;;;;;;;22.54;27.39;97377.66;5101934;28;889;-74
2020/12/26 01:56:47;;;;;;;;;;;;;;;21.90;27.81;97380.09;5084337;28;920;-75
2020/12/26 01:59:12;;;;;;;;;;;;;;;21.49;28.33;97387.66;5102002;28;1973;-74
2020/12/26 02:01:38;;;;;;;;;;;;;;;21.72;28.25;97387.22;5101895;28;654;-74
2020/12/26 02:04:04;;;;;;;;;;;;;;;21.54;28.55;97387.06;5102015;28;664;-74
2020/12/26 02:06:31;;;;;;;;;;;;;;;21.88;28.74;97388.28;5100570;28;850;-74
2020/12/26 02:08:58;;;;;;;;;;;;;;;22.34;27.91;97390.16;5101317;28;916;-74
2020/12/26 02:11:24;;;;;;;;;;;;;;;22.35;28.00;97382.44;5084345;28;868;-74
2020/12/26 02:13:50;;;;;;;;;;;;;;;22.26;27.70;97379.56;5101620;28;722;-74
2020/12/26 02:16:17;;;;;;;;;;;;;;;21.47;28.59;97390.97;5101623;28;709;-74
2020/12/26 02:18:42;;;;;;;;;;;;;;;21.51;28.77;97394.47;5101697;28;1902;-74
2020/12/26 02:21:08;;;;;;;;;;;;;;;21.04;29.61;97405.78;5101562;28;1010;-74
2020/12/26 02:23:33;;;;;;;;;;;;;;;21.94;28.53;97407.03;5101061;28;896;-74
2020/12/26 02:25:59;;;;;;;;;;;;;;;22.22;28.23;97401.56;5083791;28;871;-74
2020/12/26 02:28:24;;;;;;;;;;;;;;;22.69;27.07;97407.00;5101355;28;738;-74
2020/12/26 02:30:50;;;;;;;;;;;;;;;22.67;27.12;97411.56;5101211;28;689;-74
2020/12/26 02:33:16;;;;;;;;;;;;;;;22.18;27.70;97409.44;5101232;28;687;-74
2020/12/26 02:35:44;;;;;;;;;;;;;;;21.77;28.06;97414.97;5101034;28;1023;-75
2020/12/26 02:38:10;;;;;;;;;;;;;;;21.53;28.42;97425.13;5100886;28;854;-74
2020/12/26 02:40:35;;;;;;;;;;;;;;;21.46;28.68;97420.53;5101113;28;1984;-74
2020/12/26 02:43:00;;;;;;;;;;;;;;;21.56;29.27;97418.56;5100745;28;973;-74
2020/12/26 02:45:26;;;;;;;;;;;;;;;22.30;27.89;97417.06;5101161;28;633;-74
2020/12/26 02:47:57;;;;;;;;;;;;;;;22.61;27.34;97419.88;5100969;28;598;-75
2020/12/26 02:50:23;;;;;;;;;;;;;;;22.84;26.80;97427.84;5100688;28;1003;-75
2020/12/26 02:52:48;;;;;;;;;;;;;;;22.95;26.70;97432.31;5100718;28;822;-74
2020/12/26 02:55:14;;;;;;;;;;;;;;;22.10;27.65;97434.38;5100750;28;957;-75
2020/12/26 02:57:39;;;;;;;;;;;;;;;21.86;28.30;97431.22;5100778;28;643;-74
2020/12/26 03:00:04;;;;;;;;;;;;;;;21.67;28.37;97427.47;5100748;28;1913;-74
2020/12/26 03:02:30;;;;;;;;;;;;;;;21.42;29.22;97436.03;5101041;28;653;-74
2020/12/26 03:04:55;;;;;;;;;;;;;;;21.57;28.66;97442.78;5100567;28;943;-74
2020/12/26 03:07:21;;;;;;;;;;;;;;;22.09;28.34;97444.13;5100686;28;938;-75
2020/12/26 03:09:46;;;;;;;;;;;;;;;22.45;27.54;97443.59;5100693;28;823;-74
2020/12/26 03:12:12;;;;;;;;;;;;;;;22.54;27.69;97440.03;5100542;28;842;-74
2020/12/26 03:14:37;;;;;;;;;;;;;;;22.76;27.25;97451.31;5100586;28;710;-75
2020/12/26 03:17:02;;;;;;;;;;;;;;;22.05;27.95;97452.75;5100501;28;705;-75
2020/12/26 03:19:28;;;;;;;;;;;;;;;21.73;28.76;97468.09;5099798;28;1901;-74
2020/12/26 03:21:53;;;;;;;;;;;;;;;21.12;29.34;97472.16;5100187;28;921;-74
2020/12/26 03:24:19;;;;;;;;;;;;;;;21.49;29.22;97466.91;5100164;28;883;-74
2020/12/26 03:26:44;;;;;;;;;;;;;;;22.03;28.32;97469.44;5100314;28;702;-75
2020/12/26 03:29:09;;;;;;;;;;;;;;;22.40;27.90;97481.03;5100400;28;602;-74
2020/12/26 03:31:35;;;;;;;;;;;;;;;22.50;27.44;97473.38;5100452;28;614;-75
2020/12/26 03:34:00;;;;;;;;;;;;;;;22.45;27.40;97468.31;5099843;28;1046;-74
2020/12/26 03:36:26;;;;;;;;;;;;;;;21.69;28.41;97473.09;5100108;28;859;-75
2020/12/26 03:38:51;;;;;;;;;;;;;;;21.22;28.98;97478.72;5100180;28;1910;-75
2020/12/26 03:41:17;;;;;;;;;;;;;;;21.64;28.19;97472.88;5100343;28;709;-75
2020/12/26 03:43:42;;;;;;;;;;;;;;;22.14;28.45;97476.78;5100265;28;1016;-74
2020/12/26 03:46:08;;;;;;;;;;;;;;;22.59;27.28;97470.63;5100341;28;669;-74
2020/12/26 03:48:33;;;;;;;;;;;;;;;22.64;27.50;97461.50;5099585;28;911;-75
2020/12/26 03:50:58;;;;;;;;;;;;;;;22.40;27.18;97463.25;5099835;28;894;-75
2020/12/26 03:53:24;;;;;;;;;;;;;;;21.89;27.96;97472.00;5100141;28;920;-74
2020/12/26 03:55:49;;;;;;;;;;;;;;;21.49;28.57;97464.09;5100006;28;670;-74
2020/12/26 03:58:15;;;;;;;;;;;;;;;21.51;28.63;97461.59;5100027;28;654;-75
2020/12/26 04:00:40;;;;;;;;;;;;;;;21.63;29.21;97469.25;5099802;28;1901;-75
2020/12/26 04:03:05;;;;;;;;;;;;;;;21.98;28.57;97472.06;5099808;28;1004;-74
2020/12/26 04:05:31;;;;;;;;;;;;;;;22.54;27.63;97474.06;5099612;28;887;-74
2020/12/26 04:07:56;;;;;;;;;;;;;;;22.72;27.26;97468.47;5099750;28;857;-74
2020/12/26 04:10:22;;;;;;;;;;;;;;;22.38;27.36;97479.91;5099785;28;642;-74
2020/12/26 04:12:47;;;;;;;;;;;;;;;21.72;28.63;97477.06;5099781;28;611;-74
2020/12/26 04:15:13;;;;;;;;;;;;;;;21.29;28.95;97467.94;5099788;28;650;-74
2020/12/26 04:17:38;;;;;;;;;;;;;;;21.55;28.68;97474.38;5099464;28;881;-74
2020/12/26 04:20:03;;;;;;;;;;;;;;;21.52;28.66;97480.97;5099762;28;1959;-74
2020/12/26 04:22:29;;;;;;;;;;;;;;;21.25;29.72;97489.94;5099636;28;991;-74
2020/12/26 04:24:54;;;;;;;;;;;;;;;22.22;28.37;97493.03;5099682;28;751;-74
2020/12/26 04:27:20;;;;;;;;;;;;;;;22.47;27.48;97499.81;5099813;28;694;-74
2020/12/26 04:29:45;;;;;;;;;;;;;;;22.75;27.23;97501.56;5100316;28;674;-74
2020/12/26 04:32:11;;;;;;;;;;;;;;;22.15;27.76;97496.16;5103248;28;830;-74
2020/12/26 04:34:37;;;;;;;;;;;;;;;21.26;29.37;97508.50;5103332;28;842;-74
2020/12/26 04:37:02;;;;;;;;;;;;;;;21.18;29.15;97500.69;5103395;28;986;-74
2020/12/26 04:39:27;;;;;;;;;;;;;;;21.00;29.42;97495.63;5103408;28;1902;-74
2020/12/26 04:41:53;;;;;;;;;;;;;;;21.94;28.37;97496.91;5103614;28;1044;-74
2020/12/26 04:44:18;;;;;;;;;;;;;;;22.32;27.81;97494.69;5103546;28;574;-74
2020/12/26 04:46:44;;;;;;;;;;;;;;;22.53;27.42;97495.13;5103044;28;931;-72
2020/12/26 04:49:10;;;;;;;;;;;;;;;22.62;26.97;97503.69;5081395;28;1519;-74
2020/12/26 04:51:35;;;;;;;;;;;;;;;21.91;27.82;97506.31;5089932;28;1527;-74
2020/12/26 04:54:21;;;;;;;;;;;;;;;21.76;27.83;97509.66;5089997;28;1401;-75
2020/12/26 04:56:47;;;;;;;;;;;;;;;21.54;28.20;97520.13;5089515;28;1049;-74
2020/12/26 04:59:12;;;;;;;;;;;;;;;21.63;28.63;97520.22;5085222;28;1902;-74
2020/12/26 05:01:40;;;;;;;;;;;;;;;22.15;28.03;97537.88;5102827;28;893;-74
2020/12/26 05:04:05;;;;;;;;;;;;;;;22.32;27.41;97537.19;5103269;28;1012;-73
2020/12/26 05:06:31;;;;;;;;;;;;;;;22.83;26.55;97531.22;5103029;28;676;-73
2020/12/26 05:08:56;;;;;;;;;;;;;;;22.48;26.89;97538.25;5103263;28;677;-74
2020/12/26 05:11:21;;;;;;;;;;;;;;;21.97;27.43;97532.81;5103079;28;566;-75
2020/12/26 05:13:47;;;;;;;;;;;;;;;21.56;27.82;97548.78;5102535;28;980;-74
2020/12/26 05:16:12;;;;;;;;;;;;;;;21.04;29.02;97558.53;5102476;28;819;-74
2020/12/26 05:18:38;;;;;;;;;;;;;;;21.59;28.88;97542.97;5100984;28;1483;-74
2020/12/26 05:21:04;;;;;;;;;;;;;;;22.19;27.98;97550.66;5089140;28;1906;-74
2020/12/26 05:23:29;;;;;;;;;;;;;;;22.53;27.12;97549.78;5102882;28;669;-74
2020/12/26 05:25:55;;;;;;;;;;;;;;;22.62;27.09;97560.41;5086862;28;1559;-74
2020/12/26 05:28:21;;;;;;;;;;;;;;;22.47;27.38;97559.34;5081881;28;956;-74
2020/12/26 05:30:47;;;;;;;;;;;;;;;21.85;28.07;97560.69;5081901;28;977;-75
2020/12/26 05:33:13;;;;;;;;;;;;;;;21.64;28.24;97560.66;5082271;28;861;-74
2020/12/26 05:35:39;;;;;;;;;;;;;;;21.66;28.36;97561.78;5082171;28;441;-75
2020/12/26 05:38:11;;;;;;;;;;;;;;;21.82;28.96;97564.47;5082058;28;670;-69
2020/12/26 05:40:40;;;;;;;;;;;;;;;22.26;27.83;97578.72;5081919;28;1901;-74
2020/12/26 05:43:06;;;;;;;;;;;;;;;22.53;27.50;97580.19;5081723;28;991;-74
2020/12/26 05:45:34;;;;;;;;;;;;;;;22.57;27.46;97581.63;5064633;28;882;-74
2020/12/26 05:48:10;;;;;;;;;;;;;;;21.73;28.65;97575.69;5068046;28;1500;-74
2020/12/26 05:50:35;;;;;;;;;;;;;;;21.36;29.19;97574.50;5102101;28;611;-75
2020/12/26 05:53:01;;;;;;;;;;;;;;;21.61;29.18;97573.69;5102474;28;690;-74
2020/12/26 05:55:27;;;;;;;;;;;;;;;21.69;29.12;97575.00;5102359;28;657;-74
2020/12/26 05:57:54;;;;;;;;;;;;;;;22.34;27.71;97574.41;5083995;28;1346;-74
2020/12/26 06:00:29;;;;;;;;;;;;;;;22.72;27.18;97581.91;5101643;28;1938;-74
2020/12/26 06:02:55;;;;;;;;;;;;;;;22.61;27.03;97570.19;5101830;28;940;-74
2020/12/26 06:05:20;;;;;;;;;;;;;;;21.91;28.09;97568.63;5102003;28;677;-74
2020/12/26 06:07:46;;;;;;;;;;;;;;;21.20;29.20;97578.22;5084279;28;674;-74
2020/12/26 06:10:11;;;;;;;;;;;;;;;21.59;28.79;97576.97;5084572;28;654;-74
2020/12/26 06:12:36;;;;;;;;;;;;;;;21.81;28.57;97588.38;5101765;28;921;-75
2020/12/26 06:15:02;;;;;;;;;;;;;;;22.34;27.70;97577.22;5101594;28;972;-74
2020/12/26 06:17:28;;;;;;;;;;;;;;;22.50;27.41;97592.47;5101030;28;1539;-74
2020/12/26 06:19:54;;;;;;;;;;;;;;;22.72;26.93;97598.91;5100494;28;1906;-75
2020/12/26 06:22:20;;;;;;;;;;;;;;;22.49;27.06;97590.88;5101824;28;624;-74
2020/12/26 06:24:46;;;;;;;;;;;;;;;21.33;28.84;97587.50;5099689;28;1567;-73
2020/12/26 06:27:13;;;;;;;;;;;;;;;21.31;28.95;97590.00;5090494;28;1428;-74
2020/12/26 06:29:38;;;;;;;;;;;;;;;21.28;29.11;97590.88;5080790;28;868;-75
2020/12/26 06:32:03;;;;;;;;;;;;;;;21.92;28.32;97593.69;5063787;28;857;-74
2020/12/26 06:34:29;;;;;;;;;;;;;;;22.20;27.96;97597.56;5063830;28;674;-74
2020/12/26 06:36:56;;;;;;;;;;;;;;;22.69;27.40;97605.53;5072527;28;1520;-73
2020/12/26 06:39:25;;;;;;;;;;;;;;;22.75;27.25;97609.34;5066238;28;1971;-74
2020/12/26 06:42:08;;;;;;;;;;;;;;;22.08;28.09;97618.22;5080742;28;1261;-74
2020/12/26 06:44:34;;;;;;;;;;;;;;;21.67;28.55;97622.03;5080355;28;883;-74
2020/12/26 06:47:00;;;;;;;;;;;;;;;21.67;28.83;97628.50;5081199;28;729;-74
2020/12/26 06:49:25;;;;;;;;;;;;;;;21.61;28.77;97635.97;5080891;28;638;-74
2020/12/26 06:51:51;;;;;;;;;;;;;;;22.26;27.62;97628.94;5080778;28;618;-74
2020/12/26 06:54:16;;;;;;;;;;;;;;;22.38;27.61;97635.81;5080162;28;654;-74
2020/12/26 06:56:41;;;;;;;;;;;;;;;22.72;26.84;97632.94;5062574;28;1262;-74
2020/12/26 06:59:07;;;;;;;;;;;;;;;22.92;26.48;97634.69;5080401;28;1898;-74
2020/12/26 07:01:33;;;;;;;;;;;;;;;22.78;26.64;97636.78;5080421;28;905;-74
2020/12/26 07:04:11;;;;;;;;;;;;;;;21.84;27.88;97644.09;5080591;28;646;-74
2020/12/26 07:06:39;;;;;;;;;;;;;;;21.70;28.26;97657.91;5080465;28;642;-74
2020/12/26 07:09:05;;;;;;;;;;;;;;;21.47;28.24;97659.06;5080440;28;995;-74
2020/12/26 07:11:31;;;;;;;;;;;;;;;21.35;28.97;97688.13;5080237;28;994;-74
2020/12/26 07:13:57;;;;;;;;;;;;;;;21.67;28.41;97690.78;5079984;28;836;-75
2020/12/26 07:16:41;;;;;;;;;;;;;;;22.27;27.54;97696.50;5076027;28;1450;-74
2020/12/26 07:19:25;;;;;;;;;;;;;;;22.22;27.54;97691.41;5100481;28;1973;-74
2020/12/26 07:21:51;;;;;;;;;;;;;;;22.65;26.93;97692.00;5100472;28;652;-75
2020/12/26 07:24:17;;;;;;;;;;;;;;;22.69;26.47;97678.44;5083080;28;665;-74
2020/12/26 07:26:42;;;;;;;;;;;;;;;22.01;27.44;97680.78;5098452;28;1499;-75
2020/12/26 07:29:26;;;;;;;;;;;;;;;21.70;28.03;97672.88;5100064;28;1507;-74
2020/12/26 07:31:52;;;;;;;;;;;;;;;21.24;28.91;97672.28;5100192;28;1094;-74
2020/12/26 07:34:37;;;;;;;;;;;;;;;21.39;28.69;97658.47;5100430;28;698;-74
2020/12/26 07:37:02;;;;;;;;;;;;;;;21.73;28.36;97662.69;5098610;28;1555;-74
2020/12/26 07:39:28;;;;;;;;;;;;;;;22.18;27.68;97672.97;5083239;28;1976;-73
2020/12/26 07:41:53;;;;;;;;;;;;;;;22.44;27.30;97679.38;5099741;28;1136;-73
2020/12/26 07:44:19;;;;;;;;;;;;;;;22.63;26.76;97681.09;5090452;28;1593;-73
2020/12/26 07:46:44;;;;;;;;;;;;;;;22.62;26.64;97685.19;5062516;28;1662;-75
2020/12/26 07:49:13;;;;;;;;;;;;;;;21.63;28.46;97695.75;5062536;28;1532;-75
2020/12/26 07:51:39;;;;;;;;;;;;;;;21.59;28.68;97706.41;5079856;28;615;-75
2020/12/26 07:54:04;;;;;;;;;;;;;;;21.45;28.86;97712.50;5080183;28;618;-74
2020/12/26 07:56:30;;;;;;;;;;;;;;;22.07;28.01;97701.59;5088966;28;1473;-73
2020/12/26 07:58:55;;;;;;;;;;;;;;;22.22;27.57;97697.09;5080819;28;1988;-74
2020/12/26 08:01:27;;;;;;;;;;;;;;;22.56;27.10;97692.69;5099908;28;1109;-74
2020/12/26 08:03:59;;;;;;;;;;;;;;;22.50;27.00;97703.03;5080725;28;1634;-74
2020/12/26 08:06:25;;;;;;;;;;;;;;;21.97;27.85;97711.28;5091208;28;1570;-74
2020/12/26 08:08:51;;;;;;;;;;;;;;;21.78;28.10;97707.44;5069696;28;1575;-74
2020/12/26 08:11:21;;;;;;;;;;;;;;;21.54;28.42;97709.78;5083522;28;854;-74
2020/12/26 08:13:57;;;;;;;;;;;;;;;21.76;28.40;97710.72;5083447;28;1548;-73
2020/12/26 08:16:22;;;;;;;;;;;;;;;22.28;27.27;97717.94;5083827;28;950;-75
2020/12/26 08:18:48;;;;;;;;;;;;;;;22.49;27.05;97710.75;5083643;28;726;-74
2020/12/26 08:21:16;;;;;;;;;;;;;;;22.65;26.69;97715.47;5083512;28;1953;-74
2020/12/26 08:23:42;;;;;;;;;;;;;;;22.24;26.97;97713.66;5083796;28;606;-74
2020/12/26 08:26:07;;;;;;;;;;;;;;;21.67;28.10;97724.75;5084422;28;1559;-74
2020/12/26 08:28:34;;;;;;;;;;;;;;;21.24;28.57;97717.56;5082955;28;1594;-74
2020/12/26 08:31:02;;;;;;;;;;;;;;;21.53;28.46;97716.69;5072616;28;1513;-74
2020/12/26 08:33:29;;;;;;;;;;;;;;;22.11;27.72;97708.00;5086481;28;658;-74
2020/12/26 08:36:09;;;;;;;;;;;;;;;22.31;27.35;97717.03;5084378;28;1540;-73
2020/12/26 08:39:09;;;;;;;;;;;;;;;22.63;26.55;97726.47;5086363;28;681;-74
2020/12/26 08:41:39;;;;;;;;;;;;;;;22.10;27.19;97735.53;5021853;28;1238;-74
2020/12/26 08:44:10;;;;;;;;;;;;;;;21.50;28.15;97726.09;5087964;28;1101;-74
2020/12/26 08:46:53;;;;;;;;;;;;;;;21.37;28.43;97716.81;5102059;28;1500;-74
2020/12/26 08:49:19;;;;;;;;;;;;;;;21.81;28.04;97700.84;5103278;28;618;-74
2020/12/26 08:51:45;;;;;;;;;;;;;;;22.27;27.15;97690.84;5103546;28;674;-74
2020/12/26 08:54:17;;;;;;;;;;;;;;;22.57;26.69;97691.44;5103645;28;606;-74
2020/12/26 08:56:42;;;;;;;;;;;;;;;22.91;26.08;97701.22;5101228;28;1520;-74
2020/12/26 08:59:07;;;;;;;;;;;;;;;22.67;26.31;97704.44;5102815;28;2001;-74
2020/12/26 09:01:33;;;;;;;;;;;;;;;21.95;27.47;97717.38;5088839;28;1484;-73
2020/12/26 09:03:59;;;;;;;;;;;;;;;21.24;28.37;97720.38;5083285;28;639;-74
2020/12/26 09:06:31;;;;;;;;;;;;;;;21.46;28.23;97705.59;5082729;28;1601;-74
2020/12/26 09:08:56;;;;;;;;;;;;;;;21.68;28.64;97720.69;5083307;28;1685;-74
2020/12/26 09:11:27;;;;;;;;;;;;;;;22.31;27.26;97711.34;5082386;28;1492;-74
2020/12/26 09:13:52;;;;;;;;;;;;;;;22.49;26.85;97707.13;5082531;28;943;-74
2020/12/26 09:16:18;;;;;;;;;;;;;;;22.54;26.40;97706.56;5082122;28;841;-74
2020/12/26 09:18:52;;;;;;;;;;;;;;;21.58;28.08;97728.25;5084015;28;1515;-74
2020/12/26 09:21:24;;;;;;;;;;;;;;;21.33;27.90;97733.88;5082658;28;602;-74
2020/12/26 09:23:50;;;;;;;;;;;;;;;21.78;27.97;97713.88;5082381;28;690;-74
2020/12/26 09:26:16;;;;;;;;;;;;;;;22.18;27.28;97707.78;5082287;28;1015;-75
2020/12/26 09:28:45;;;;;;;;;;;;;;;22.58;26.46;97712.88;5083116;28;1590;-74
2020/12/26 09:31:11;;;;;;;;;;;;;;;22.40;26.96;97719.16;5082415;28;936;-74
2020/12/26 09:33:37;;;;;;;;;;;;;;;22.07;26.78;97716.59;5097804;28;1607;-74
2020/12/26 09:36:03;;;;;;;;;;;;;;;21.76;27.43;97722.06;5083282;28;1469;-74
2020/12/26 09:38:28;;;;;;;;;;;;;;;21.38;27.74;97732.53;5082398;28;694;-74
2020/12/26 09:40:56;;;;;;;;;;;;;;;21.50;27.96;97721.25;5081835;28;1902;-74
2020/12/26 09:43:23;;;;;;;;;;;;;;;21.96;27.64;97707.63;5081655;28;1035;-74
2020/12/26 09:45:48;;;;;;;;;;;;;;;22.39;26.65;97711.13;5083223;28;1492;-74
2020/12/26 09:48:13;;;;;;;;;;;;;;;22.73;26.13;97707.47;5082336;28;666;-74
2020/12/26 09:50:39;;;;;;;;;;;;;;;22.88;25.82;97720.72;5082274;28;666;-74
2020/12/26 09:53:04;;;;;;;;;;;;;;;21.92;27.34;97715.47;5081864;28;714;-74
2020/12/26 09:55:30;;;;;;;;;;;;;;;21.64;27.83;97730.53;5082668;28;1488;-74
2020/12/26 09:57:55;;;;;;;;;;;;;;;21.29;28.14;97716.97;5096776;28;1578;-74
2020/12/26 10:00:21;;;;;;;;;;;;;;;21.53;28.26;97711.84;5101867;28;1906;-75
2020/12/26 10:02:46;;;;;;;;;;;;;;;22.06;27.25;97709.31;5102046;28;602;-74
2020/12/26 10:05:16;;;;;;;;;;;;;;;22.27;26.75;97705.00;5101844;28;658;-74
2020/12/26 10:07:41;;;;;;;;;;;;;;;22.68;26.17;97708.84;5100148;28;1630;-74
2020/12/26 10:10:07;;;;;;;;;;;;;;;21.88;26.89;97714.00;5101500;28;1017;-74
2020/12/26 10:12:32;;;;;;;;;;;;;;;21.85;27.06;97707.97;5101436;28;945;-74
2020/12/26 10:14:57;;;;;;;;;;;;;;;21.52;27.89;97706.63;5101908;28;1038;-74
2020/12/26 10:17:23;;;;;;;;;;;;;;;21.37;28.42;97705.47;5100468;28;1555;-74
2020/12/26 10:19:48;;;;;;;;;;;;;;;22.24;26.94;97705.94;5102189;28;1922;-74
2020/12/26 10:22:14;;;;;;;;;;;;;;;22.44;26.66;97708.50;5101594;28;595;-74
2020/12/26 10:24:39;;;;;;;;;;;;;;;22.66;26.03;97702.88;5101558;28;1035;-74
2020/12/26 10:27:05;;;;;;;;;;;;;;;22.75;25.69;97700.13;5099315;28;1491;-74
2020/12/26 10:29:30;;;;;;;;;;;;;;;21.88;27.14;97699.84;5101358;28;841;-74
2020/12/26 10:31:56;;;;;;;;;;;;;;;21.76;27.07;97710.72;5101383;28;722;-74
2020/12/26 10:34:21;;;;;;;;;;;;;;;21.75;27.26;97711.16;5101679;28;673;-74
2020/12/26 10:36:47;;;;;;;;;;;;;;;21.41;27.87;97720.31;5083623;28;753;-74
2020/12/26 10:39:12;;;;;;;;;;;;;;;21.90;27.29;97711.50;5098731;28;1902;-73
2020/12/26 10:41:42;;;;;;;;;;;;;;;22.44;26.70;97713.38;5085681;28;1601;-74
2020/12/26 10:44:07;;;;;;;;;;;;;;;22.69;26.01;97707.63;5101387;28;1135;-74
2020/12/26 10:46:33;;;;;;;;;;;;;;;21.57;27.52;97709.69;5091889;28;1385;-74
2020/12/26 10:48:58;;;;;;;;;;;;;;;21.50;27.57;97721.25;5080814;28;689;-74
2020/12/26 10:51:24;;;;;;;;;;;;;;;21.51;27.87;97717.16;5080992;28;698;-74
2020/12/26 10:53:49;;;;;;;;;;;;;;;22.26;26.80;97703.44;5081469;28;1654;-74
2020/12/26 10:56:14;;;;;;;;;;;;;;;22.48;26.16;97694.19;5080507;28;843;-74
2020/12/26 10:58:40;;;;;;;;;;;;;;;22.50;26.26;97701.00;5080441;28;1006;-74
2020/12/26 11:01:05;;;;;;;;;;;;;;;22.60;25.90;97693.38;5084457;28;1969;-73
2020/12/26 11:03:31;;;;;;;;;;;;;;;21.64;27.23;97703.00;5099747;28;1752;-74
2020/12/26 11:05:56;;;;;;;;;;;;;;;21.43;27.46;97698.00;5098646;28;1593;-74
2020/12/26 11:08:22;;;;;;;;;;;;;;;21.36;27.75;97698.25;5100359;28;1091;-74
2020/12/26 11:10:47;;;;;;;;;;;;;;;21.62;28.10;97694.19;5100564;28;908;-74
2020/12/26 11:13:13;;;;;;;;;;;;;;;22.16;26.96;97698.13;5098798;28;1752;-74
2020/12/26 11:15:38;;;;;;;;;;;;;;;22.45;26.36;97692.28;5100497;28;690;-74
2020/12/26 11:18:04;;;;;;;;;;;;;;;22.62;25.96;97688.81;5100630;28;614;-74
2020/12/26 11:20:29;;;;;;;;;;;;;;;22.57;25.73;97694.28;5100442;28;1898;-74
2020/12/26 11:22:54;;;;;;;;;;;;;;;21.70;27.27;97678.53;5088273;28;1555;-74
2020/12/26 11:25:20;;;;;;;;;;;;;;;21.40;27.83;97704.56;5080176;28;889;-74
2020/12/26 11:27:45;;;;;;;;;;;;;;;21.36;27.79;97695.41;5080081;28;946;-74
2020/12/26 11:30:11;;;;;;;;;;;;;;;21.65;28.02;97696.09;5080068;28;717;-74
2020/12/26 11:32:36;;;;;;;;;;;;;;;22.23;26.75;97701.53;5081493;28;1594;-74
2020/12/26 11:35:02;;;;;;;;;;;;;;;22.50;26.26;97694.53;5079959;28;635;-74
2020/12/26 11:37:30;;;;;;;;;;;;;;;22.59;26.25;97703.13;5079739;28;845;-74
2020/12/26 11:39:55;;;;;;;;;;;;;;;21.79;26.98;97692.81;5079457;28;1983;-74
2020/12/26 11:42:20;;;;;;;;;;;;;;;21.03;28.46;97698.34;5079910;28;993;-74
2020/12/26 11:44:46;;;;;;;;;;;;;;;21.15;28.17;97717.41;5083173;28;1678;-74
2020/12/26 11:47:11;;;;;;;;;;;;;;;21.51;27.63;97705.84;5100495;28;659;-74
2020/12/26 11:49:37;;;;;;;;;;;;;;;22.08;26.94;97697.56;5100075;28;718;-74
2020/12/26 11:52:02;;;;;;;;;;;;;;;22.62;26.01;97707.88;5099802;28;889;-74
2020/12/26 11:54:28;;;;;;;;;;;;;;;22.67;25.89;97697.97;5098082;28;1549;-74
2020/12/26 11:56:53;;;;;;;;;;;;;;;22.84;25.70;97690.88;5100246;28;943;-74
2020/12/26 11:59:19;;;;;;;;;;;;;;;22.54;25.77;97681.03;5099954;28;1898;-74
2020/12/26 12:01:44;;;;;;;;;;;;;;;21.51;27.11;97693.72;5100002;28;622;-74
2020/12/26 12:04:10;;;;;;;;;;;;;;;21.42;27.45;97694.38;5098594;28;1531;-74
2020/12/26 12:06:35;;;;;;;;;;;;;;;21.54;27.42;97687.94;5099614;28;864;-74
2020/12/26 12:09:01;;;;;;;;;;;;;;;21.57;27.56;97689.88;5099694;28;888;-74
2020/12/26 12:11:26;;;;;;;;;;;;;;;21.35;27.99;97696.63;5082719;28;837;-74
2020/12/26 12:13:52;;;;;;;;;;;;;;;21.96;27.20;97678.50;5100165;28;663;-74
2020/12/26 12:16:17;;;;;;;;;;;;;;;22.33;26.53;97696.75;5098256;28;1587;-74
2020/12/26 12:18:42;;;;;;;;;;;;;;;22.46;26.16;97679.69;5099873;28;606;-73
2020/12/26 12:21:08;;;;;;;;;;;;;;;22.66;25.88;97685.84;5099395;28;1909;-74
2020/12/26 12:23:33;;;;;;;;;;;;;;;22.21;26.57;97683.38;5099708;28;902;-74
2020/12/26 12:25:59;;;;;;;;;;;;;;;21.32;27.66;97687.81;5098063;28;1511;-74
2020/12/26 12:28:24;;;;;;;;;;;;;;;21.51;27.58;97693.72;5082331;28;1119;-74
2020/12/26 12:30:50;;;;;;;;;;;;;;;21.50;27.72;97695.78;5100014;28;678;-74
2020/12/26 12:33:15;;;;;;;;;;;;;;;21.47;27.77;97698.69;5100101;28;666;-74
2020/12/26 12:35:41;;;;;;;;;;;;;;;22.04;26.81;97691.22;5097510;28;1508;-74
2020/12/26 12:38:12;;;;;;;;;;;;;;;22.41;26.47;97695.22;5099363;28;895;-74
2020/12/26 12:40:38;;;;;;;;;;;;;;;22.59;26.11;97691.78;5099842;28;1975;-74
2020/12/26 12:43:03;;;;;;;;;;;;;;;22.58;26.10;97695.84;5099502;28;986;-74
2020/12/26 12:45:28;;;;;;;;;;;;;;;22.28;26.44;97692.44;5099635;28;674;-74
2020/12/26 12:47:54;;;;;;;;;;;;;;;21.56;27.39;97693.16;5097961;28;1547;-74
2020/12/26 12:50:19;;;;;;;;;;;;;;;21.74;26.97;97693.38;5098893;28;1535;-74
2020/12/26 12:52:48;;;;;;;;;;;;;;;21.45;27.84;97695.50;5102968;28;871;-74
2020/12/26 12:55:13;;;;;;;;;;;;;;;21.91;27.14;97699.69;5103471;28;950;-74
2020/12/26 12:57:39;;;;;;;;;;;;;;;22.48;26.06;97700.66;5101803;28;1492;-74
2020/12/26 13:00:04;;;;;;;;;;;;;;;22.49;26.00;97701.47;5103364;28;1914;-74